sensor_id;sensor_type;location;lat;lon;timestamp;pressure;altitude;pressure_sealevel;temperature;humidity
53699;BME280;68408;53.952;27.612;2023-03-16T00:04:20;1008.6;;;3.4;70.9
53699;BME280;68408;53.952;27.612;2023-03-16T00:08:28;1008.6;;;3.4;70.8
53699;BME280;68408;53.952;27.612;2023-03-16T00:14:20;1008.6;;;3.3;70.8
53699;BME280;68408;53.952;27.612;2023-03-16T00:19:06;1008.6;;;3.3;71
53699;BME280;68408;53.952;27.612;2023-03-16T00:23:28;1008.7;;;3.3;70.9
53699;BME280;68408;53.952;27.612;2023-03-16T00:28:46;1008.8;;;3.2;70.7
53699;BME280;68408;53.952;27.612;2023-03-16T00:34:20;1008.8;;;3.2;70.7
53699;BME280;68408;53.952;27.612;2023-03-16T00:38:36;1008.9;;;3.1;70.7
53699;BME280;68408;53.952;27.612;2023-03-16T00:43:52;1008.9;;;3.2;70.7
53699;BME280;68408;53.952;27.612;2023-03-16T00:49:20;1008.9;;;3.2;70.8
53699;BME280;68408;53.952;27.612;2023-03-16T00:53:28;1008.9;;;3.1;70.8
53699;BME280;68408;53.952;27.612;2023-03-16T00:58:42;1008.9;;;3.1;70.7
53699;BME280;68408;53.952;27.612;2023-03-16T01:03:50;1008.9;;;3;70.6
53699;BME280;68408;53.952;27.612;2023-03-16T01:08:38;1008.9;;;3;70.7
53699;BME280;68408;53.952;27.612;2023-03-16T01:14:06;1008.9;;;2.9;70.7
53699;BME280;68408;53.952;27.612;2023-03-16T01:18:50;1008.9;;;2.9;70.8
53699;BME280;68408;53.952;27.612;2023-03-16T01:23:48;1008.9;;;2.9;70.7
53699;BME280;68408;53.952;27.612;2023-03-16T01:29:04;1009;;;2.9;70.6
53699;BME280;68408;53.952;27.612;2023-03-16T01:34:20;1009.1;;;2.9;70.6
53699;BME280;68408;53.952;27.612;2023-03-16T01:38:28;1009.1;;;2.9;70.5
53699;BME280;68408;53.952;27.612;2023-03-16T01:44:21;1009.1;;;2.9;70.5
53699;BME280;68408;53.952;27.612;2023-03-16T01:48:28;1009.2;;;2.9;70.8
53699;BME280;68408;53.952;27.612;2023-03-16T01:54:03;1009.3;;;2.9;70.5
53699;BME280;68408;53.952;27.612;2023-03-16T01:59:05;1009.3;;;2.9;70.7
53699;BME280;68408;53.952;27.612;2023-03-16T02:03:36;1009.3;;;2.9;70.6
53699;BME280;68408;53.952;27.612;2023-03-16T02:09:04;1009.2;;;2.9;70.9
53699;BME280;68408;53.952;27.612;2023-03-16T02:14:05;1009.1;;;2.8;71.2
53699;BME280;68408;53.952;27.612;2023-03-16T02:18:36;1009.2;;;2.7;71.4
53699;BME280;68408;53.952;27.612;2023-03-16T02:24:06;1009.2;;;2.6;71.4
53699;BME280;68408;53.952;27.612;2023-03-16T02:29:23;1009.3;;;2.6;71.4
53699;BME280;68408;53.952;27.612;2023-03-16T02:33:36;1009.3;;;2.6;71.2
53699;BME280;68408;53.952;27.612;2023-03-16T02:39:04;1009.3;;;2.5;71
53699;BME280;68408;53.952;27.612;2023-03-16T02:44:07;1009.3;;;2.5;70.9
53699;BME280;68408;53.952;27.612;2023-03-16T02:49:04;1009.3;;;2.5;70.7
53699;BME280;68408;53.952;27.612;2023-03-16T02:53:50;1009.4;;;2.4;70.5
53699;BME280;68408;53.952;27.612;2023-03-16T02:58:52;1009.4;;;2.4;70.3
53699;BME280;68408;53.952;27.612;2023-03-16T03:03:34;1009.4;;;2.4;70.4
53699;BME280;68408;53.952;27.612;2023-03-16T03:09:20;1009.6;;;2.3;70.4
53699;BME280;68408;53.952;27.612;2023-03-16T03:13:28;1009.6;;;2.3;70.4
53699;BME280;68408;53.952;27.612;2023-03-16T03:19:20;1009.6;;;2.2;70.3
53699;BME280;68408;53.952;27.612;2023-03-16T03:24:06;1009.7;;;2.1;70.3
53699;BME280;68408;53.952;27.612;2023-03-16T03:29:06;1009.8;;;2.1;70.4
53699;BME280;68408;53.952;27.612;2023-03-16T03:33:48;1009.8;;;2.1;70.4
53699;BME280;68408;53.952;27.612;2023-03-16T03:39:20;1009.8;;;2.1;70.5
53699;BME280;68408;53.952;27.612;2023-03-16T03:43:44;1009.9;;;2;70.1
53699;BME280;68408;53.952;27.612;2023-03-16T03:49:02;1010;;;2;70.2
53699;BME280;68408;53.952;27.612;2023-03-16T03:54:20;1010;;;2;70.2
53699;BME280;68408;53.952;27.612;2023-03-16T03:58:42;1010.1;;;2.1;70
53699;BME280;68408;53.952;27.612;2023-03-16T04:03:50;1010.1;;;2.1;69.8
53699;BME280;68408;53.952;27.612;2023-03-16T04:09:20;1010.2;;;2.1;69.6
53699;BME280;68408;53.952;27.612;2023-03-16T04:14:20;1010.3;;;2;69.5
53699;BME280;68408;53.952;27.612;2023-03-16T04:19:06;1010.3;;;2;69.6
53699;BME280;68408;53.952;27.612;2023-03-16T04:23:28;1010.3;;;2;69.5
53699;BME280;68408;53.952;27.612;2023-03-16T04:28:36;1010.3;;;2;69.6
53699;BME280;68408;53.952;27.612;2023-03-16T04:34:02;1010.3;;;2;69.5
53699;BME280;68408;53.952;27.612;2023-03-16T04:39:20;1010.3;;;2;69.6
53699;BME280;68408;53.952;27.612;2023-03-16T04:43:36;1010.4;;;1.9;69.5
53699;BME280;68408;53.952;27.612;2023-03-16T04:48:28;1010.4;;;1.9;69.4
53699;BME280;68408;53.952;27.612;2023-03-16T04:54:06;1010.4;;;1.9;69.5
53699;BME280;68408;53.952;27.612;2023-03-16T04:59:18;1010.4;;;1.9;69.4
53699;BME280;68408;53.952;27.612;2023-03-16T05:03:48;1010.5;;;2;69.3
53699;BME280;68408;53.952;27.612;2023-03-16T05:08:36;1010.5;;;2;69
53699;BME280;68408;53.952;27.612;2023-03-16T05:14:20;1010.5;;;2;69
53699;BME280;68408;53.952;27.612;2023-03-16T05:18:50;1010.6;;;2.1;68.9
53699;BME280;68408;53.952;27.612;2023-03-16T05:23:36;1010.7;;;2.1;68.7
53699;BME280;68408;53.952;27.612;2023-03-16T05:28:48;1010.8;;;2.1;68.5
53699;BME280;68408;53.952;27.612;2023-03-16T05:34:20;1010.9;;;2.1;68.3
53699;BME280;68408;53.952;27.612;2023-03-16T05:38:28;1011;;;2.2;68.1
53699;BME280;68408;53.952;27.612;2023-03-16T05:43:44;1011;;;2.2;68.1
53699;BME280;68408;53.952;27.612;2023-03-16T05:48:52;1011;;;2.4;67.6
53699;BME280;68408;53.952;27.612;2023-03-16T05:54:02;1011.1;;;2.5;67
53699;BME280;68408;53.952;27.612;2023-03-16T05:58:28;1011.2;;;2.6;66.7
53699;BME280;68408;53.952;27.612;2023-03-16T06:04:04;1011.3;;;2.6;66.3
53699;BME280;68408;53.952;27.612;2023-03-16T06:09:18;1011.3;;;2.6;66.1
53699;BME280;68408;53.952;27.612;2023-03-16T06:14:18;1011.3;;;2.6;66.1
53699;BME280;68408;53.952;27.612;2023-03-16T06:18:34;1011.3;;;2.6;65.9
53699;BME280;68408;53.952;27.612;2023-03-16T06:24:18;1011.4;;;2.6;66.1
53699;BME280;68408;53.952;27.612;2023-03-16T06:29:04;1011.5;;;2.6;66.1
53699;BME280;68408;53.952;27.612;2023-03-16T06:33:42;1011.5;;;2.6;65.7
53699;BME280;68408;53.952;27.612;2023-03-16T06:38:46;1011.6;;;2.7;65.5
53699;BME280;68408;53.952;27.612;2023-03-16T06:44:18;1011.6;;;2.8;65
53699;BME280;68408;53.952;27.612;2023-03-16T06:48:34;1011.6;;;3.2;64.5
53699;BME280;68408;53.952;27.612;2023-03-16T06:53:30;1011.6;;;3.5;63.5
53699;BME280;68408;53.952;27.612;2023-03-16T06:59:18;1011.7;;;3.8;63.2
53699;BME280;68408;53.952;27.612;2023-03-16T07:03:42;1011.8;;;4;62.6
53699;BME280;68408;53.952;27.612;2023-03-16T07:08:48;1011.8;;;4.2;61.7
53699;BME280;68408;53.952;27.612;2023-03-16T07:13:34;1011.8;;;4.2;61.5
53699;BME280;68408;53.952;27.612;2023-03-16T07:18:38;1011.9;;;4.1;61.3
53699;BME280;68408;53.952;27.612;2023-03-16T07:24:04;1011.9;;;4.1;61.1
53699;BME280;68408;53.952;27.612;2023-03-16T07:28:48;1011.9;;;4;61.2
53699;BME280;68408;53.952;27.612;2023-03-16T07:33:46;1012;;;4;61.3
53699;BME280;68408;53.952;27.612;2023-03-16T07:39:00;1012;;;3.9;61.4
53699;BME280;68408;53.952;27.612;2023-03-16T07:44:18;1012.1;;;4;61
53699;BME280;68408;53.952;27.612;2023-03-16T07:48:46;1012.2;;;4.4;60
53699;BME280;68408;53.952;27.612;2023-03-16T07:53:50;1012.2;;;4.6;59.1
53699;BME280;68408;53.952;27.612;2023-03-16T07:58:28;1012.2;;;4.7;59.2
53699;BME280;68408;53.952;27.612;2023-03-16T08:04:18;1012.2;;;4.9;58.7
53699;BME280;68408;53.952;27.612;2023-03-16T08:08:48;1012.2;;;5.1;58
53699;BME280;68408;53.952;27.612;2023-03-16T08:13:38;1012.2;;;5.1;57.7
53699;BME280;68408;53.952;27.612;2023-03-16T08:19:18;1012.2;;;5.1;57.6
53699;BME280;68408;53.952;27.612;2023-03-16T08:23:48;1012.3;;;5.1;57.6
53699;BME280;68408;53.952;27.612;2023-03-16T08:28:34;1012.3;;;5.2;57.5
53699;BME280;68408;53.952;27.612;2023-03-16T08:33:46;1012.3;;;5.3;57.3
53699;BME280;68408;53.952;27.612;2023-03-16T08:39:20;1012.4;;;5.5;56.8
53699;BME280;68408;53.952;27.612;2023-03-16T08:43:36;1012.4;;;5.7;56.3
53699;BME280;68408;53.952;27.612;2023-03-16T08:49:18;1012.4;;;5.9;55.7
53699;BME280;68408;53.952;27.612;2023-03-16T08:54:06;1012.5;;;6.1;55.6
53699;BME280;68408;53.952;27.612;2023-03-16T08:58:28;1012.5;;;6.2;55
53699;BME280;68408;53.952;27.612;2023-03-16T09:03:42;1012.5;;;6.1;55.3
53699;BME280;68408;53.952;27.612;2023-03-16T09:08:48;1012.5;;;6.2;55.1
53699;BME280;68408;53.952;27.612;2023-03-16T09:14:02;1012.6;;;6.4;54.5
53699;BME280;68408;53.952;27.612;2023-03-16T09:19:04;1012.6;;;6.6;54.1
53699;BME280;68408;53.952;27.612;2023-03-16T09:23:48;1012.6;;;6.7;54
53699;BME280;68408;53.952;27.612;2023-03-16T09:29:18;1012.6;;;6.8;54.2
53699;BME280;68408;53.952;27.612;2023-03-16T09:34:02;1012.6;;;6.9;53.4
53699;BME280;68408;53.952;27.612;2023-03-16T09:38:48;1012.6;;;6.9;52.9
53699;BME280;68408;53.952;27.612;2023-03-16T09:43:38;1012.7;;;6.9;53.3
53699;BME280;68408;53.952;27.612;2023-03-16T09:49:18;1012.7;;;6.9;52.9
53699;BME280;68408;53.952;27.612;2023-03-16T09:53:35;1012.7;;;6.8;53.5
53699;BME280;68408;53.952;27.612;2023-03-16T09:58:40;1012.8;;;6.9;53.7
53699;BME280;68408;53.952;27.612;2023-03-16T10:04:18;1012.8;;;7;53.1
53699;BME280;68408;53.952;27.612;2023-03-16T10:08:43;1012.9;;;7.1;53.3
53699;BME280;68408;53.952;27.612;2023-03-16T10:13:40;1013;;;7.1;52.1
53699;BME280;68408;53.952;27.612;2023-03-16T10:18:52;1013;;;6.9;52.1
53699;BME280;68408;53.952;27.612;2023-03-16T10:23:48;1013;;;6.8;52.2
53699;BME280;68408;53.952;27.612;2023-03-16T10:28:44;1013;;;6.7;52.1
53699;BME280;68408;53.952;27.612;2023-03-16T10:33:51;1013;;;6.7;52
53699;BME280;68408;53.952;27.612;2023-03-16T10:38:49;1013;;;6.8;51.4
53699;BME280;68408;53.952;27.612;2023-03-16T10:44:05;1013.1;;;6.7;50.7
53699;BME280;68408;53.952;27.612;2023-03-16T10:49:19;1013.2;;;6.6;50.7
53699;BME280;68408;53.952;27.612;2023-03-16T10:53:46;1013.2;;;6.7;50.7
53699;BME280;68408;53.952;27.612;2023-03-16T10:58:48;1013.3;;;6.6;50.5
53699;BME280;68408;53.952;27.612;2023-03-16T11:03:36;1013.3;;;6.6;50.9
53699;BME280;68408;53.952;27.612;2023-03-16T11:09:19;1013.4;;;6.6;50.5
53699;BME280;68408;53.952;27.612;2023-03-16T11:13:31;1013.5;;;6.7;49.6
53699;BME280;68408;53.952;27.612;2023-03-16T11:18:29;1013.5;;;6.5;48.4
53699;BME280;68408;53.952;27.612;2023-03-16T11:24:22;1013.5;;;6.4;48.7
53699;BME280;68408;53.952;27.612;2023-03-16T11:28:51;1013.6;;;6.5;48.4
53699;BME280;68408;53.952;27.612;2023-03-16T11:33:40;1013.5;;;6.6;47.6
53699;BME280;68408;53.952;27.612;2023-03-16T11:39:22;1013.6;;;6.7;47.6
53699;BME280;68408;53.952;27.612;2023-03-16T11:44:22;1013.5;;;6.8;47.6
53699;BME280;68408;53.952;27.612;2023-03-16T11:48:30;1013.5;;;6.9;47.1
53699;BME280;68408;53.952;27.612;2023-03-16T11:54:26;1013.6;;;7.1;45.9
53699;BME280;68408;53.952;27.612;2023-03-16T11:59:24;1013.5;;;7;44.9
53699;BME280;68408;53.952;27.612;2023-03-16T12:03:33;1013.6;;;7.2;44.8
53699;BME280;68408;53.952;27.612;2023-03-16T12:08:55;1013.6;;;7.4;44.8
53699;BME280;68408;53.952;27.612;2023-03-16T12:14:06;1013.6;;;7.5;43.3
53699;BME280;68408;53.952;27.612;2023-03-16T12:18:32;1013.6;;;7.3;43.9
53699;BME280;68408;53.952;27.612;2023-03-16T12:24:09;1013.6;;;7.4;43.7
53699;BME280;68408;53.952;27.612;2023-03-16T12:28:36;1013.7;;;7.1;43
53699;BME280;68408;53.952;27.612;2023-03-16T12:33:34;1013.7;;;6.7;43.3
53699;BME280;68408;53.952;27.612;2023-03-16T12:39:05;1013.7;;;6.8;43.9
53699;BME280;68408;53.952;27.612;2023-03-16T12:43:52;1013.7;;;6.9;42.9
53699;BME280;68408;53.952;27.612;2023-03-16T12:48:57;1013.7;;;7;42.9
53699;BME280;68408;53.952;27.612;2023-03-16T12:54:21;1013.7;;;7.2;41.8
53699;BME280;68408;53.952;27.612;2023-03-16T12:59:06;1013.7;;;7.3;41.1
53699;BME280;68408;53.952;27.612;2023-03-16T13:04:07;1013.8;;;7.4;39.7
53699;BME280;68408;53.952;27.612;2023-03-16T13:09:04;1013.9;;;7.3;39.8
53699;BME280;68408;53.952;27.612;2023-03-16T13:13:49;1013.9;;;7.1;40.4
53699;BME280;68408;53.952;27.612;2023-03-16T13:19:36;1013.9;;;7.1;40
53699;BME280;68408;53.952;27.612;2023-03-16T13:23:50;1013.9;;;7;39.9
53699;BME280;68408;53.952;27.612;2023-03-16T13:28:49;1013.9;;;6.9;40.3
53699;BME280;68408;53.952;27.612;2023-03-16T13:34:06;1013.9;;;6.8;41
53699;BME280;68408;53.952;27.612;2023-03-16T13:39:21;1013.9;;;6.8;40.6
53699;BME280;68408;53.952;27.612;2023-03-16T13:44:20;1013.9;;;6.7;40.4
53699;BME280;68408;53.952;27.612;2023-03-16T13:49:20;1014;;;6.7;40.1
53699;BME280;68408;53.952;27.612;2023-03-16T13:54:22;1014;;;6.7;39.3
53699;BME280;68408;53.952;27.612;2023-03-16T13:58:29;1014;;;6.5;39.6
53699;BME280;68408;53.952;27.612;2023-03-16T14:03:50;1014;;;6.5;40.1
53699;BME280;68408;53.952;27.612;2023-03-16T14:08:28;1014.1;;;6.5;40.1
53699;BME280;68408;53.952;27.612;2023-03-16T14:14:12;1014.1;;;6.6;39.6
53699;BME280;68408;53.952;27.612;2023-03-16T14:19:07;1014.2;;;6.5;39.1
53699;BME280;68408;53.952;27.612;2023-03-16T14:23:37;1014.2;;;6.4;39.6
53699;BME280;68408;53.952;27.612;2023-03-16T14:29:22;1014.2;;;6.4;39.9
53699;BME280;68408;53.952;27.612;2023-03-16T14:33:50;1014.3;;;6.5;39.7
53699;BME280;68408;53.952;27.612;2023-03-16T14:38:40;1014.3;;;6.6;39.5
53699;BME280;68408;53.952;27.612;2023-03-16T14:43:30;1014.3;;;6.6;39.5
53699;BME280;68408;53.952;27.612;2023-03-16T14:49:21;1014.3;;;6.8;39.4
53699;BME280;68408;53.952;27.612;2023-03-16T14:53:50;1014.4;;;6.8;38.9
53699;BME280;68408;53.952;27.612;2023-03-16T14:59:20;1014.4;;;6.7;38.7
53699;BME280;68408;53.952;27.612;2023-03-16T15:04:22;1014.4;;;6.5;38.6
53699;BME280;68408;53.952;27.612;2023-03-16T15:08:29;1014.5;;;6.4;39.1
53699;BME280;68408;53.952;27.612;2023-03-16T15:13:50;1014.5;;;6.3;39.5
53699;BME280;68408;53.952;27.612;2023-03-16T15:19:02;1014.6;;;6.2;39.9
53699;BME280;68408;53.952;27.612;2023-03-16T15:24:04;1014.6;;;6.1;40.5
53699;BME280;68408;53.952;27.612;2023-03-16T15:29:08;1014.7;;;5.9;40.8
53699;BME280;68408;53.952;27.612;2023-03-16T15:33:28;1014.8;;;5.8;40.7
53699;BME280;68408;53.952;27.612;2023-03-16T15:39:19;1014.8;;;5.6;41
53699;BME280;68408;53.952;27.612;2023-03-16T15:44:06;1014.9;;;5.5;41
53699;BME280;68408;53.952;27.612;2023-03-16T15:48:28;1015;;;5.3;41.2
53699;BME280;68408;53.952;27.612;2023-03-16T15:53:29;1015;;;5.2;41.7
53699;BME280;68408;53.952;27.612;2023-03-16T15:59:21;1015;;;5.2;42.2
53699;BME280;68408;53.952;27.612;2023-03-16T16:03:36;1015.1;;;5.1;42.8
53699;BME280;68408;53.952;27.612;2023-03-16T16:09:04;1015.2;;;5.1;43.1
53699;BME280;68408;53.952;27.612;2023-03-16T16:14:04;1015.2;;;5;43.4
53699;BME280;68408;53.952;27.612;2023-03-16T16:18:29;1015.3;;;5;43.6
53699;BME280;68408;53.952;27.612;2023-03-16T16:24:05;1015.4;;;4.9;43.9
53699;BME280;68408;53.952;27.612;2023-03-16T16:29:05;1015.4;;;4.8;43.9
53699;BME280;68408;53.952;27.612;2023-03-16T16:34:03;1015.5;;;4.8;43.9
53699;BME280;68408;53.952;27.612;2023-03-16T16:39:20;1015.6;;;4.7;43.9
53699;BME280;68408;53.952;27.612;2023-03-16T16:44:21;1015.6;;;4.7;43.9
53699;BME280;68408;53.952;27.612;2023-03-16T16:48:43;1015.7;;;4.6;43.9
53699;BME280;68408;53.952;27.612;2023-03-16T16:54:12;1015.7;;;4.6;43.8
53699;BME280;68408;53.952;27.612;2023-03-16T16:59:00;1015.8;;;4.6;43.5
53699;BME280;68408;53.952;27.612;2023-03-16T17:04:05;1015.9;;;4.6;43.6
53699;BME280;68408;53.952;27.612;2023-03-16T17:08:28;1016;;;4.5;43.4
53699;BME280;68408;53.952;27.612;2023-03-16T17:14:04;1016.1;;;4.5;43.5
53699;BME280;68408;53.952;27.612;2023-03-16T17:18:43;1016.1;;;4.4;43.6
53699;BME280;68408;53.952;27.612;2023-03-16T17:24:20;1016.1;;;4.4;43.6
53699;BME280;68408;53.952;27.612;2023-03-16T17:28:39;1016.2;;;4.3;43.9
53699;BME280;68408;53.952;27.612;2023-03-16T17:34:21;1016.2;;;4.3;43.9
53699;BME280;68408;53.952;27.612;2023-03-16T17:38:52;1016.2;;;4.3;44
53699;BME280;68408;53.952;27.612;2023-03-16T17:43:36;1016.2;;;4.3;44.2
53699;BME280;68408;53.952;27.612;2023-03-16T17:48:40;1016.2;;;4.2;44.4
53699;BME280;68408;53.952;27.612;2023-03-16T17:54:20;1016.3;;;4.2;44.6
53699;BME280;68408;53.952;27.612;2023-03-16T17:58:28;1016.4;;;4.1;44.9
53699;BME280;68408;53.952;27.612;2023-03-16T18:04:05;1016.4;;;4.1;45.1
53699;BME280;68408;53.952;27.612;2023-03-16T18:09:20;1016.5;;;4;45.3
53699;BME280;68408;53.952;27.612;2023-03-16T18:13:50;1016.5;;;4;45.5
53699;BME280;68408;53.952;27.612;2023-03-16T18:18:50;1016.5;;;3.9;45.7
53699;BME280;68408;53.952;27.612;2023-03-16T18:23:58;1016.6;;;3.9;45.9
53699;BME280;68408;53.952;27.612;2023-03-16T18:28:36;1016.6;;;3.8;46.1
53699;BME280;68408;53.952;27.612;2023-03-16T18:34:06;1016.7;;;3.8;46.3
53699;BME280;68408;53.952;27.612;2023-03-16T18:38:50;1016.8;;;3.7;46.4
53699;BME280;68408;53.952;27.612;2023-03-16T18:43:28;1016.8;;;3.7;46.6
53699;BME280;68408;53.952;27.612;2023-03-16T18:49:09;1016.9;;;3.7;46.9
53699;BME280;68408;53.952;27.612;2023-03-16T18:54:22;1017;;;3.6;47.1
53699;BME280;68408;53.952;27.612;2023-03-16T18:58:28;1017;;;3.6;47.3
53699;BME280;68408;53.952;27.612;2023-03-16T19:03:50;1017.1;;;3.6;47.7
53699;BME280;68408;53.952;27.612;2023-03-16T19:08:50;1017.1;;;3.6;48.1
53699;BME280;68408;53.952;27.612;2023-03-16T19:14:21;1017.2;;;3.5;48.3
53699;BME280;68408;53.952;27.612;2023-03-16T19:18:28;1017.3;;;3.5;48.5
53699;BME280;68408;53.952;27.612;2023-03-16T19:23:53;1017.3;;;3.4;48.5
53699;BME280;68408;53.952;27.612;2023-03-16T19:29:22;1017.4;;;3.3;49
53699;BME280;68408;53.952;27.612;2023-03-16T19:33:51;1017.5;;;3.2;49.3
53699;BME280;68408;53.952;27.612;2023-03-16T19:38:38;1017.5;;;3.1;49.7
53699;BME280;68408;53.952;27.612;2023-03-16T19:43:28;1017.5;;;2.9;50
53699;BME280;68408;53.952;27.612;2023-03-16T19:49:08;1017.5;;;2.8;50.3
53699;BME280;68408;53.952;27.612;2023-03-16T19:53:36;1017.5;;;2.8;50.5
53699;BME280;68408;53.952;27.612;2023-03-16T19:59:20;1017.5;;;2.7;50.8
53699;BME280;68408;53.952;27.612;2023-03-16T20:04:17;1017.6;;;2.6;51
53699;BME280;68408;53.952;27.612;2023-03-16T20:08:36;1017.6;;;2.5;51.4
53699;BME280;68408;53.952;27.612;2023-03-16T20:13:36;1017.7;;;2.4;51.8
53699;BME280;68408;53.952;27.612;2023-03-16T20:19:08;1017.7;;;2.3;52.5
53699;BME280;68408;53.952;27.612;2023-03-16T20:24:03;1017.8;;;2.2;53.5
53699;BME280;68408;53.952;27.612;2023-03-16T20:29:08;1017.8;;;2.1;53.5
53699;BME280;68408;53.952;27.612;2023-03-16T20:33:28;1017.8;;;2.1;53.8
53699;BME280;68408;53.952;27.612;2023-03-16T20:39:20;1017.8;;;2;53.8
53699;BME280;68408;53.952;27.612;2023-03-16T20:43:38;1017.8;;;2;54.2
53699;BME280;68408;53.952;27.612;2023-03-16T20:48:36;1017.8;;;1.9;54.2
53699;BME280;68408;53.952;27.612;2023-03-16T20:53:28;1017.8;;;1.9;54.4
53699;BME280;68408;53.952;27.612;2023-03-16T20:59:21;1017.8;;;1.8;54.5
53699;BME280;68408;53.952;27.612;2023-03-16T21:03:36;1017.8;;;1.8;54.6
53699;BME280;68408;53.952;27.612;2023-03-16T21:09:04;1017.8;;;1.8;54.8
53699;BME280;68408;53.952;27.612;2023-03-16T21:14:05;1017.8;;;1.7;55.1
53699;BME280;68408;53.952;27.612;2023-03-16T21:18:50;1017.9;;;1.6;55.6
53699;BME280;68408;53.952;27.612;2023-03-16T21:24:05;1017.9;;;1.5;56
53699;BME280;68408;53.952;27.612;2023-03-16T21:28:36;1017.9;;;1.5;56.2
53699;BME280;68408;53.952;27.612;2023-03-16T21:33:49;1017.9;;;1.4;56.6
53699;BME280;68408;53.952;27.612;2023-03-16T21:39:08;1017.9;;;1.4;56.8
53699;BME280;68408;53.952;27.612;2023-03-16T21:44:20;1018;;;1.3;56.9
53699;BME280;68408;53.952;27.612;2023-03-16T21:48:30;1018;;;1.3;57.1
53699;BME280;68408;53.952;27.612;2023-03-16T21:54:04;1018.1;;;1.3;57.1
53699;BME280;68408;53.952;27.612;2023-03-16T21:59:20;1018.1;;;1.2;57.2
53699;BME280;68408;53.952;27.612;2023-03-16T22:03:49;1018.1;;;1.2;57.3
53699;BME280;68408;53.952;27.612;2023-03-16T22:08:50;1018.1;;;1.2;57.5
53699;BME280;68408;53.952;27.612;2023-03-16T22:13:42;1018.2;;;1.2;57.4
53699;BME280;68408;53.952;27.612;2023-03-16T22:19:20;1018.2;;;1.3;57.4
53699;BME280;68408;53.952;27.612;2023-03-16T22:23:50;1018.2;;;1.3;57.7
53699;BME280;68408;53.952;27.612;2023-03-16T22:28:53;1018.2;;;1.2;58.1
53699;BME280;68408;53.952;27.612;2023-03-16T22:34:24;1018.3;;;1.1;58.3
53699;BME280;68408;53.952;27.612;2023-03-16T22:38:52;1018.3;;;1.1;58.6
53699;BME280;68408;53.952;27.612;2023-03-16T22:43:29;1018.4;;;1;58.9
53699;BME280;68408;53.952;27.612;2023-03-16T22:49:04;1018.4;;;1;59
53699;BME280;68408;53.952;27.612;2023-03-16T22:54:22;1018.4;;;0.9;59.1
53699;BME280;68408;53.952;27.612;2023-03-16T22:58:37;1018.5;;;0.9;59.3
53699;BME280;68408;53.952;27.612;2023-03-16T23:04:19;1018.5;;;0.8;59.3
53699;BME280;68408;53.952;27.612;2023-03-16T23:09:21;1018.6;;;0.8;59.3
53699;BME280;68408;53.952;27.612;2023-03-16T23:13:28;1018.6;;;0.8;59.4
53699;BME280;68408;53.952;27.612;2023-03-16T23:18:51;1018.7;;;0.7;59.6
53699;BME280;68408;53.952;27.612;2023-03-16T23:24:05;1018.8;;;0.7;60
53699;BME280;68408;53.952;27.612;2023-03-16T23:29:04;1018.8;;;0.6;60.4
53699;BME280;68408;53.952;27.612;2023-03-16T23:34:08;1018.9;;;0.6;60.7
53699;BME280;68408;53.952;27.612;2023-03-16T23:39:05;1018.9;;;0.5;61.1
53699;BME280;68408;53.952;27.612;2023-03-16T23:44:09;1018.9;;;0.5;61.4
53699;BME280;68408;53.952;27.612;2023-03-16T23:48:31;1018.9;;;0.5;61.5
53699;BME280;68408;53.952;27.612;2023-03-16T23:53:57;1018.9;;;0.5;61.2
53699;BME280;68408;53.952;27.612;2023-03-16T23:58:49;1018.9;;;0.4;61.3
